sensor_id;sensor_type;location;lat;lon;timestamp;P1;durP1;ratioP1;P2;durP2;ratioP2
15202;SDS011;7702;51.046;5.184;2022-10-16T00:01:21;2.60;;;2.10;;
15202;SDS011;7702;51.046;5.184;2022-10-16T00:03:50;3.13;;;1.67;;
15202;SDS011;7702;51.046;5.184;2022-10-16T00:06:17;2.17;;;1.90;;
15202;SDS011;7702;51.046;5.184;2022-10-16T00:08:44;2.10;;;1.93;;
15202;SDS011;7702;51.046;5.184;2022-10-16T00:11:18;3.30;;;1.63;;
15202;SDS011;7702;51.046;5.184;2022-10-16T00:13:49;3.33;;;1.63;;
15202;SDS011;7702;51.046;5.184;2022-10-16T00:16:17;3.90;;;1.40;;
15202;SDS011;7702;51.046;5.184;2022-10-16T00:18:44;1.70;;;1.53;;
15202;SDS011;7702;51.046;5.184;2022-10-16T00:21:11;3.07;;;1.67;;
15202;SDS011;7702;51.046;5.184;2022-10-16T00:23:41;1.53;;;1.43;;
15202;SDS011;7702;51.046;5.184;2022-10-16T00:26:08;1.97;;;1.80;;
15202;SDS011;7702;51.046;5.184;2022-10-16T00:28:35;2.87;;;1.60;;
15202;SDS011;7702;51.046;5.184;2022-10-16T00:31:02;2.17;;;1.97;;
15202;SDS011;7702;51.046;5.184;2022-10-16T00:33:32;1.53;;;1.43;;
15202;SDS011;7702;51.046;5.184;2022-10-16T00:35:59;2.60;;;1.43;;
15202;SDS011;7702;51.046;5.184;2022-10-16T00:38:26;3.13;;;1.60;;
15202;SDS011;7702;51.046;5.184;2022-10-16T00:40:51;2.47;;;1.40;;
15202;SDS011;7702;51.046;5.184;2022-10-16T00:43:34;1.43;;;1.33;;
15202;SDS011;7702;51.046;5.184;2022-10-16T00:46:04;3.17;;;1.30;;
15202;SDS011;7702;51.046;5.184;2022-10-16T00:48:44;1.63;;;1.53;;
15202;SDS011;7702;51.046;5.184;2022-10-16T00:51:17;3.03;;;1.83;;
15202;SDS011;7702;51.046;5.184;2022-10-16T00:53:46;1.83;;;1.27;;
15202;SDS011;7702;51.046;5.184;2022-10-16T00:56:13;1.80;;;1.40;;
15202;SDS011;7702;51.046;5.184;2022-10-16T00:58:39;1.47;;;1.37;;
15202;SDS011;7702;51.046;5.184;2022-10-16T01:01:05;1.70;;;1.60;;
15202;SDS011;7702;51.046;5.184;2022-10-16T01:03:32;1.73;;;1.50;;
15202;SDS011;7702;51.046;5.184;2022-10-16T01:09:02;2.27;;;1.60;;
15202;SDS011;7702;51.046;5.184;2022-10-16T01:11:44;1.03;;;0.90;;
15202;SDS011;7702;51.046;5.184;2022-10-16T01:14:59;2.03;;;1.13;;
15202;SDS011;7702;51.046;5.184;2022-10-16T01:17:06;1.63;;;1.37;;
15202;SDS011;7702;51.046;5.184;2022-10-16T01:25:11;1.40;;;1.30;;
15202;SDS011;7702;51.046;5.184;2022-10-16T01:28:05;2.30;;;1.20;;
15202;SDS011;7702;51.046;5.184;2022-10-16T01:30:34;2.90;;;1.40;;
15202;SDS011;7702;51.046;5.184;2022-10-16T01:33:08;1.20;;;1.10;;
15202;SDS011;7702;51.046;5.184;2022-10-16T01:35:47;1.47;;;1.17;;
15202;SDS011;7702;51.046;5.184;2022-10-16T01:40:51;1.20;;;1.10;;
15202;SDS011;7702;51.046;5.184;2022-10-16T01:43:32;1.23;;;1.13;;
15202;SDS011;7702;51.046;5.184;2022-10-16T01:46:01;4.53;;;1.20;;
15202;SDS011;7702;51.046;5.184;2022-10-16T01:48:27;1.77;;;1.60;;
15202;SDS011;7702;51.046;5.184;2022-10-16T01:51:06;1.77;;;1.43;;
15202;SDS011;7702;51.046;5.184;2022-10-16T01:53:37;2.23;;;1.50;;
15202;SDS011;7702;51.046;5.184;2022-10-16T01:56:04;4.60;;;1.50;;
15202;SDS011;7702;51.046;5.184;2022-10-16T01:58:35;1.60;;;1.33;;
15202;SDS011;7702;51.046;5.184;2022-10-16T02:01:04;1.20;;;1.20;;
15202;SDS011;7702;51.046;5.184;2022-10-16T02:03:34;1.50;;;1.13;;
15202;SDS011;7702;51.046;5.184;2022-10-16T02:06:03;1.87;;;1.40;;
15202;SDS011;7702;51.046;5.184;2022-10-16T02:08:29;1.20;;;1.10;;
15202;SDS011;7702;51.046;5.184;2022-10-16T02:10:56;3.10;;;1.50;;
15202;SDS011;7702;51.046;5.184;2022-10-16T02:16:02;1.47;;;1.37;;
15202;SDS011;7702;51.046;5.184;2022-10-16T02:18:28;3.37;;;2.60;;
15202;SDS011;7702;51.046;5.184;2022-10-16T02:21:00;1.43;;;1.30;;
15202;SDS011;7702;51.046;5.184;2022-10-16T02:26:27;2.50;;;1.30;;
15202;SDS011;7702;51.046;5.184;2022-10-16T02:29:01;1.47;;;1.37;;
15202;SDS011;7702;51.046;5.184;2022-10-16T02:31:31;1.53;;;1.43;;
15202;SDS011;7702;51.046;5.184;2022-10-16T02:34:00;2.00;;;1.37;;
15202;SDS011;7702;51.046;5.184;2022-10-16T02:36:29;3.17;;;1.70;;
15202;SDS011;7702;51.046;5.184;2022-10-16T02:38:56;2.13;;;1.30;;
15202;SDS011;7702;51.046;5.184;2022-10-16T02:41:25;1.13;;;1.10;;
15202;SDS011;7702;51.046;5.184;2022-10-16T02:43:51;1.80;;;1.47;;
15202;SDS011;7702;51.046;5.184;2022-10-16T02:46:16;1.63;;;1.37;;
15202;SDS011;7702;51.046;5.184;2022-10-16T02:48:43;1.50;;;1.40;;
15202;SDS011;7702;51.046;5.184;2022-10-16T02:51:09;1.63;;;1.37;;
15202;SDS011;7702;51.046;5.184;2022-10-16T02:53:35;1.80;;;1.43;;
15202;SDS011;7702;51.046;5.184;2022-10-16T02:56:01;1.93;;;1.40;;
15202;SDS011;7702;51.046;5.184;2022-10-16T02:58:26;1.57;;;1.40;;
15202;SDS011;7702;51.046;5.184;2022-10-16T03:00:52;3.53;;;1.50;;
15202;SDS011;7702;51.046;5.184;2022-10-16T03:03:18;4.97;;;1.70;;
15202;SDS011;7702;51.046;5.184;2022-10-16T03:05:43;1.87;;;1.40;;
15202;SDS011;7702;51.046;5.184;2022-10-16T03:08:11;3.67;;;1.50;;
15202;SDS011;7702;51.046;5.184;2022-10-16T03:10:37;1.40;;;1.27;;
15202;SDS011;7702;51.046;5.184;2022-10-16T03:13:03;2.17;;;1.60;;
15202;SDS011;7702;51.046;5.184;2022-10-16T03:15:28;2.97;;;1.47;;
15202;SDS011;7702;51.046;5.184;2022-10-16T03:17:54;3.27;;;1.60;;
15202;SDS011;7702;51.046;5.184;2022-10-16T03:20:23;3.07;;;1.57;;
15202;SDS011;7702;51.046;5.184;2022-10-16T03:22:48;2.60;;;1.60;;
15202;SDS011;7702;51.046;5.184;2022-10-16T03:25:14;1.50;;;1.40;;
15202;SDS011;7702;51.046;5.184;2022-10-16T03:27:39;2.90;;;1.60;;
15202;SDS011;7702;51.046;5.184;2022-10-16T03:30:05;1.50;;;1.40;;
15202;SDS011;7702;51.046;5.184;2022-10-16T03:32:32;2.37;;;1.60;;
15202;SDS011;7702;51.046;5.184;2022-10-16T03:34:57;1.93;;;1.67;;
15202;SDS011;7702;51.046;5.184;2022-10-16T03:37:23;4.67;;;1.73;;
15202;SDS011;7702;51.046;5.184;2022-10-16T03:39:50;5.97;;;1.80;;
15202;SDS011;7702;51.046;5.184;2022-10-16T03:42:15;1.53;;;1.43;;
15202;SDS011;7702;51.046;5.184;2022-10-16T03:44:41;1.43;;;1.33;;
15202;SDS011;7702;51.046;5.184;2022-10-16T03:47:07;2.97;;;2.50;;
15202;SDS011;7702;51.046;5.184;2022-10-16T03:49:32;1.67;;;1.50;;
15202;SDS011;7702;51.046;5.184;2022-10-16T03:51:58;4.00;;;1.53;;
15202;SDS011;7702;51.046;5.184;2022-10-16T03:54:24;2.97;;;1.53;;
15202;SDS011;7702;51.046;5.184;2022-10-16T03:56:49;1.97;;;1.60;;
15202;SDS011;7702;51.046;5.184;2022-10-16T03:59:15;2.50;;;1.90;;
15202;SDS011;7702;51.046;5.184;2022-10-16T04:01:41;2.53;;;2.17;;
15202;SDS011;7702;51.046;5.184;2022-10-16T04:04:06;4.83;;;1.70;;
15202;SDS011;7702;51.046;5.184;2022-10-16T04:06:32;2.30;;;1.73;;
15202;SDS011;7702;51.046;5.184;2022-10-16T04:08:57;2.17;;;1.73;;
15202;SDS011;7702;51.046;5.184;2022-10-16T04:11:24;1.40;;;1.30;;
15202;SDS011;7702;51.046;5.184;2022-10-16T04:13:49;2.47;;;1.73;;
15202;SDS011;7702;51.046;5.184;2022-10-16T04:16:15;3.60;;;1.70;;
15202;SDS011;7702;51.046;5.184;2022-10-16T04:18:41;3.10;;;1.90;;
15202;SDS011;7702;51.046;5.184;2022-10-16T04:21:07;2.63;;;1.97;;
15202;SDS011;7702;51.046;5.184;2022-10-16T04:23:33;2.47;;;1.87;;
15202;SDS011;7702;51.046;5.184;2022-10-16T04:25:59;2.37;;;1.70;;
15202;SDS011;7702;51.046;5.184;2022-10-16T04:28:25;2.00;;;1.90;;
15202;SDS011;7702;51.046;5.184;2022-10-16T04:30:50;2.23;;;1.73;;
15202;SDS011;7702;51.046;5.184;2022-10-16T04:33:16;1.70;;;1.60;;
15202;SDS011;7702;51.046;5.184;2022-10-16T04:35:42;2.70;;;1.90;;
15202;SDS011;7702;51.046;5.184;2022-10-16T04:38:08;3.47;;;2.23;;
15202;SDS011;7702;51.046;5.184;2022-10-16T04:40:33;2.53;;;1.70;;
15202;SDS011;7702;51.046;5.184;2022-10-16T04:43:01;3.23;;;1.67;;
15202;SDS011;7702;51.046;5.184;2022-10-16T04:45:28;2.63;;;2.10;;
15202;SDS011;7702;51.046;5.184;2022-10-16T04:47:56;2.97;;;2.07;;
15202;SDS011;7702;51.046;5.184;2022-10-16T04:50:25;2.60;;;1.63;;
15202;SDS011;7702;51.046;5.184;2022-10-16T04:52:52;3.30;;;2.20;;
15202;SDS011;7702;51.046;5.184;2022-10-16T04:55:17;1.53;;;1.47;;
15202;SDS011;7702;51.046;5.184;2022-10-16T04:57:43;3.53;;;1.80;;
15202;SDS011;7702;51.046;5.184;2022-10-16T05:00:10;5.53;;;1.90;;
15202;SDS011;7702;51.046;5.184;2022-10-16T05:02:36;2.60;;;1.87;;
15202;SDS011;7702;51.046;5.184;2022-10-16T05:05:02;2.13;;;1.83;;
15202;SDS011;7702;51.046;5.184;2022-10-16T05:07:27;2.10;;;2.00;;
15202;SDS011;7702;51.046;5.184;2022-10-16T05:09:53;2.60;;;2.30;;
15202;SDS011;7702;51.046;5.184;2022-10-16T05:12:19;2.60;;;2.30;;
15202;SDS011;7702;51.046;5.184;2022-10-16T05:14:44;2.30;;;1.97;;
15202;SDS011;7702;51.046;5.184;2022-10-16T05:17:10;2.37;;;2.17;;
15202;SDS011;7702;51.046;5.184;2022-10-16T05:19:36;2.47;;;2.27;;
15202;SDS011;7702;51.046;5.184;2022-10-16T05:22:01;3.13;;;2.70;;
15202;SDS011;7702;51.046;5.184;2022-10-16T05:24:27;3.93;;;2.60;;
15202;SDS011;7702;51.046;5.184;2022-10-16T05:26:53;2.60;;;2.40;;
15202;SDS011;7702;51.046;5.184;2022-10-16T05:29:19;3.57;;;2.77;;
15202;SDS011;7702;51.046;5.184;2022-10-16T05:31:45;2.80;;;2.30;;
15202;SDS011;7702;51.046;5.184;2022-10-16T05:34:11;3.20;;;2.90;;
15202;SDS011;7702;51.046;5.184;2022-10-16T05:36:38;4.37;;;2.53;;
15202;SDS011;7702;51.046;5.184;2022-10-16T05:39:04;3.03;;;2.47;;
15202;SDS011;7702;51.046;5.184;2022-10-16T05:41:30;2.70;;;2.50;;
15202;SDS011;7702;51.046;5.184;2022-10-16T05:43:56;3.87;;;2.57;;
15202;SDS011;7702;51.046;5.184;2022-10-16T05:46:22;2.57;;;2.37;;
15202;SDS011;7702;51.046;5.184;2022-10-16T05:48:47;3.30;;;2.57;;
15202;SDS011;7702;51.046;5.184;2022-10-16T05:51:13;3.70;;;2.53;;
15202;SDS011;7702;51.046;5.184;2022-10-16T05:53:40;4.10;;;2.60;;
15202;SDS011;7702;51.046;5.184;2022-10-16T05:56:06;3.43;;;2.80;;
15202;SDS011;7702;51.046;5.184;2022-10-16T05:58:35;4.23;;;2.70;;
15202;SDS011;7702;51.046;5.184;2022-10-16T06:01:05;3.87;;;2.87;;
15202;SDS011;7702;51.046;5.184;2022-10-16T06:03:36;3.60;;;2.70;;
15202;SDS011;7702;51.046;5.184;2022-10-16T06:06:15;3.57;;;3.07;;
15202;SDS011;7702;51.046;5.184;2022-10-16T06:08:43;4.23;;;3.20;;
15202;SDS011;7702;51.046;5.184;2022-10-16T06:11:15;3.53;;;3.23;;
15202;SDS011;7702;51.046;5.184;2022-10-16T06:13:42;4.70;;;3.03;;
15202;SDS011;7702;51.046;5.184;2022-10-16T06:16:08;3.13;;;2.70;;
15202;SDS011;7702;51.046;5.184;2022-10-16T06:18:35;3.27;;;2.90;;
15202;SDS011;7702;51.046;5.184;2022-10-16T06:21:06;5.20;;;3.27;;
15202;SDS011;7702;51.046;5.184;2022-10-16T06:23:34;5.07;;;2.93;;
15202;SDS011;7702;51.046;5.184;2022-10-16T06:26:10;3.87;;;3.30;;
15202;SDS011;7702;51.046;5.184;2022-10-16T06:28:37;3.47;;;3.17;;
15202;SDS011;7702;51.046;5.184;2022-10-16T06:31:04;5.07;;;3.00;;
15202;SDS011;7702;51.046;5.184;2022-10-16T06:33:30;4.20;;;3.40;;
15202;SDS011;7702;51.046;5.184;2022-10-16T06:36:03;3.27;;;2.97;;
15202;SDS011;7702;51.046;5.184;2022-10-16T06:38:30;4.43;;;3.37;;
15202;SDS011;7702;51.046;5.184;2022-10-16T06:40:56;4.70;;;2.97;;
15202;SDS011;7702;51.046;5.184;2022-10-16T06:43:22;3.77;;;3.47;;
15202;SDS011;7702;51.046;5.184;2022-10-16T06:45:52;5.47;;;3.00;;
15202;SDS011;7702;51.046;5.184;2022-10-16T06:48:22;5.73;;;3.00;;
15202;SDS011;7702;51.046;5.184;2022-10-16T06:50:56;2.90;;;2.70;;
15202;SDS011;7702;51.046;5.184;2022-10-16T06:53:30;3.80;;;3.30;;
15202;SDS011;7702;51.046;5.184;2022-10-16T06:55:58;4.57;;;3.33;;
15202;SDS011;7702;51.046;5.184;2022-10-16T06:58:32;3.40;;;3.20;;
15202;SDS011;7702;51.046;5.184;2022-10-16T07:00:58;4.87;;;3.63;;
15202;SDS011;7702;51.046;5.184;2022-10-16T07:03:24;3.73;;;3.10;;
15202;SDS011;7702;51.046;5.184;2022-10-16T07:05:50;4.77;;;2.63;;
15202;SDS011;7702;51.046;5.184;2022-10-16T07:08:15;3.30;;;3.00;;
15202;SDS011;7702;51.046;5.184;2022-10-16T07:10:41;4.37;;;3.20;;
15202;SDS011;7702;51.046;5.184;2022-10-16T07:13:07;4.97;;;3.47;;
15202;SDS011;7702;51.046;5.184;2022-10-16T07:15:33;5.40;;;3.13;;
15202;SDS011;7702;51.046;5.184;2022-10-16T07:17:59;3.37;;;3.07;;
15202;SDS011;7702;51.046;5.184;2022-10-16T07:20:25;4.00;;;2.93;;
15202;SDS011;7702;51.046;5.184;2022-10-16T07:22:50;4.37;;;3.50;;
15202;SDS011;7702;51.046;5.184;2022-10-16T07:25:17;3.93;;;2.97;;
15202;SDS011;7702;51.046;5.184;2022-10-16T07:27:43;3.97;;;3.30;;
15202;SDS011;7702;51.046;5.184;2022-10-16T07:30:09;3.20;;;2.80;;
15202;SDS011;7702;51.046;5.184;2022-10-16T07:32:35;3.80;;;2.90;;
15202;SDS011;7702;51.046;5.184;2022-10-16T07:35:00;5.23;;;3.83;;
15202;SDS011;7702;51.046;5.184;2022-10-16T07:37:26;3.63;;;2.93;;
15202;SDS011;7702;51.046;5.184;2022-10-16T07:39:52;3.10;;;2.80;;
15202;SDS011;7702;51.046;5.184;2022-10-16T07:42:18;5.47;;;2.67;;
15202;SDS011;7702;51.046;5.184;2022-10-16T07:44:45;2.90;;;2.70;;
15202;SDS011;7702;51.046;5.184;2022-10-16T07:47:10;3.83;;;2.87;;
15202;SDS011;7702;51.046;5.184;2022-10-16T07:49:36;5.77;;;3.83;;
15202;SDS011;7702;51.046;5.184;2022-10-16T07:52:02;3.30;;;2.80;;
15202;SDS011;7702;51.046;5.184;2022-10-16T07:54:27;2.73;;;2.53;;
15202;SDS011;7702;51.046;5.184;2022-10-16T07:56:53;2.90;;;2.70;;
15202;SDS011;7702;51.046;5.184;2022-10-16T07:59:19;5.07;;;2.90;;
15202;SDS011;7702;51.046;5.184;2022-10-16T08:01:44;3.07;;;2.60;;
15202;SDS011;7702;51.046;5.184;2022-10-16T08:04:10;3.83;;;2.97;;
15202;SDS011;7702;51.046;5.184;2022-10-16T08:06:36;2.40;;;2.20;;
15202;SDS011;7702;51.046;5.184;2022-10-16T08:09:03;4.70;;;2.37;;
15202;SDS011;7702;51.046;5.184;2022-10-16T08:11:31;2.10;;;2.00;;
15202;SDS011;7702;51.046;5.184;2022-10-16T08:13:57;2.20;;;2.07;;
15202;SDS011;7702;51.046;5.184;2022-10-16T08:16:22;4.13;;;2.27;;
15202;SDS011;7702;51.046;5.184;2022-10-16T08:18:48;2.93;;;2.10;;
15202;SDS011;7702;51.046;5.184;2022-10-16T08:21:17;2.00;;;1.80;;
15202;SDS011;7702;51.046;5.184;2022-10-16T08:23:44;3.93;;;1.87;;
15202;SDS011;7702;51.046;5.184;2022-10-16T08:26:10;2.47;;;1.90;;
15202;SDS011;7702;51.046;5.184;2022-10-16T08:28:36;3.70;;;2.30;;
15202;SDS011;7702;51.046;5.184;2022-10-16T08:31:09;3.20;;;2.10;;
15202;SDS011;7702;51.046;5.184;2022-10-16T08:33:40;3.67;;;2.00;;
15202;SDS011;7702;51.046;5.184;2022-10-16T08:36:07;2.30;;;1.70;;
15202;SDS011;7702;51.046;5.184;2022-10-16T08:38:34;2.03;;;1.73;;
15202;SDS011;7702;51.046;5.184;2022-10-16T08:49:43;3.50;;;2.13;;
15202;SDS011;7702;51.046;5.184;2022-10-16T08:52:22;3.10;;;1.63;;
15202;SDS011;7702;51.046;5.184;2022-10-16T08:54:54;3.50;;;1.53;;
15202;SDS011;7702;51.046;5.184;2022-10-16T08:57:21;2.57;;;1.67;;
15202;SDS011;7702;51.046;5.184;2022-10-16T08:59:48;2.90;;;1.50;;
15202;SDS011;7702;51.046;5.184;2022-10-16T09:08:06;3.30;;;1.40;;
15202;SDS011;7702;51.046;5.184;2022-10-16T09:13:43;1.80;;;1.10;;
15202;SDS011;7702;51.046;5.184;2022-10-16T09:16:18;1.77;;;1.30;;
15202;SDS011;7702;51.046;5.184;2022-10-16T09:19:09;4.13;;;1.40;;
15202;SDS011;7702;51.046;5.184;2022-10-16T09:21:44;3.53;;;1.10;;
15202;SDS011;7702;51.046;5.184;2022-10-16T09:24:19;5.57;;;1.40;;
15202;SDS011;7702;51.046;5.184;2022-10-16T09:26:47;4.50;;;1.10;;
15202;SDS011;7702;51.046;5.184;2022-10-16T09:29:16;2.10;;;1.20;;
15202;SDS011;7702;51.046;5.184;2022-10-16T09:31:45;1.77;;;1.00;;
15202;SDS011;7702;51.046;5.184;2022-10-16T09:34:32;2.70;;;1.00;;
15202;SDS011;7702;51.046;5.184;2022-10-16T09:36:58;4.47;;;1.43;;
15202;SDS011;7702;51.046;5.184;2022-10-16T09:39:28;2.67;;;1.30;;
15202;SDS011;7702;51.046;5.184;2022-10-16T09:41:54;3.63;;;1.40;;
15202;SDS011;7702;51.046;5.184;2022-10-16T09:47:04;3.10;;;1.50;;
15202;SDS011;7702;51.046;5.184;2022-10-16T09:49:37;1.23;;;1.10;;
15202;SDS011;7702;51.046;5.184;2022-10-16T09:52:03;3.03;;;1.33;;
15202;SDS011;7702;51.046;5.184;2022-10-16T09:54:37;2.77;;;1.00;;
15202;SDS011;7702;51.046;5.184;2022-10-16T09:57:06;2.20;;;1.53;;
15202;SDS011;7702;51.046;5.184;2022-10-16T09:59:45;2.70;;;1.00;;
15202;SDS011;7702;51.046;5.184;2022-10-16T10:02:36;2.20;;;1.17;;
15202;SDS011;7702;51.046;5.184;2022-10-16T10:05:04;2.43;;;1.27;;
15202;SDS011;7702;51.046;5.184;2022-10-16T10:07:54;1.37;;;1.10;;
15202;SDS011;7702;51.046;5.184;2022-10-16T10:10:28;3.50;;;1.03;;
15202;SDS011;7702;51.046;5.184;2022-10-16T10:12:56;6.20;;;1.33;;
15202;SDS011;7702;51.046;5.184;2022-10-16T10:15:22;3.43;;;1.10;;
15202;SDS011;7702;51.046;5.184;2022-10-16T10:17:53;3.83;;;1.20;;
15202;SDS011;7702;51.046;5.184;2022-10-16T10:23:00;2.97;;;1.30;;
15202;SDS011;7702;51.046;5.184;2022-10-16T10:25:35;3.30;;;1.13;;
15202;SDS011;7702;51.046;5.184;2022-10-16T10:30:48;2.00;;;0.90;;
15202;SDS011;7702;51.046;5.184;2022-10-16T10:36:08;2.20;;;1.23;;
15202;SDS011;7702;51.046;5.184;2022-10-16T10:41:40;1.87;;;1.40;;
15202;SDS011;7702;51.046;5.184;2022-10-16T10:44:37;2.53;;;0.90;;
15202;SDS011;7702;51.046;5.184;2022-10-16T10:47:40;1.50;;;1.10;;
15202;SDS011;7702;51.046;5.184;2022-10-16T10:50:14;1.80;;;0.73;;
15202;SDS011;7702;51.046;5.184;2022-10-16T10:52:51;2.00;;;0.87;;
15202;SDS011;7702;51.046;5.184;2022-10-16T10:55:28;2.40;;;1.00;;
15202;SDS011;7702;51.046;5.184;2022-10-16T10:58:15;2.77;;;1.20;;
15202;SDS011;7702;51.046;5.184;2022-10-16T11:11:38;3.83;;;0.93;;
15202;SDS011;7702;51.046;5.184;2022-10-16T11:14:20;2.17;;;1.00;;
15202;SDS011;7702;51.046;5.184;2022-10-16T11:16:56;3.20;;;0.97;;
15202;SDS011;7702;51.046;5.184;2022-10-16T11:22:33;2.10;;;1.17;;
15202;SDS011;7702;51.046;5.184;2022-10-16T11:30:34;3.23;;;0.90;;
15202;SDS011;7702;51.046;5.184;2022-10-16T11:38:10;1.90;;;0.90;;
15202;SDS011;7702;51.046;5.184;2022-10-16T11:41:01;4.67;;;1.00;;
15202;SDS011;7702;51.046;5.184;2022-10-16T11:43:48;3.03;;;0.90;;
15202;SDS011;7702;51.046;5.184;2022-10-16T11:46:27;3.60;;;1.17;;
15202;SDS011;7702;51.046;5.184;2022-10-16T11:49:03;2.40;;;0.90;;
15202;SDS011;7702;51.046;5.184;2022-10-16T11:56:54;1.70;;;1.07;;
15202;SDS011;7702;51.046;5.184;2022-10-16T11:59:30;3.30;;;0.90;;
15202;SDS011;7702;51.046;5.184;2022-10-16T12:04:51;1.57;;;0.90;;
15202;SDS011;7702;51.046;5.184;2022-10-16T12:07:27;5.87;;;1.20;;
15202;SDS011;7702;51.046;5.184;2022-10-16T12:13:01;4.00;;;1.10;;
15202;SDS011;7702;51.046;5.184;2022-10-16T12:15:29;2.37;;;1.00;;
15202;SDS011;7702;51.046;5.184;2022-10-16T12:17:57;2.00;;;0.83;;
15202;SDS011;7702;51.046;5.184;2022-10-16T12:20:27;6.67;;;2.30;;
15202;SDS011;7702;51.046;5.184;2022-10-16T12:22:56;2.50;;;0.90;;
15202;SDS011;7702;51.046;5.184;2022-10-16T12:27:58;1.67;;;0.70;;
15202;SDS011;7702;51.046;5.184;2022-10-16T12:30:27;3.03;;;0.90;;
15202;SDS011;7702;51.046;5.184;2022-10-16T12:33:05;2.47;;;1.07;;
15202;SDS011;7702;51.046;5.184;2022-10-16T12:35:44;1.67;;;1.20;;
15202;SDS011;7702;51.046;5.184;2022-10-16T12:38:20;1.80;;;1.20;;
15202;SDS011;7702;51.046;5.184;2022-10-16T12:40:53;4.03;;;1.10;;
15202;SDS011;7702;51.046;5.184;2022-10-16T12:43:39;2.53;;;1.10;;
15202;SDS011;7702;51.046;5.184;2022-10-16T12:48:35;1.93;;;1.20;;
15202;SDS011;7702;51.046;5.184;2022-10-16T13:10:52;1.53;;;0.87;;
15202;SDS011;7702;51.046;5.184;2022-10-16T13:16:04;2.73;;;1.07;;
15202;SDS011;7702;51.046;5.184;2022-10-16T13:29:16;1.63;;;0.90;;
15202;SDS011;7702;51.046;5.184;2022-10-16T13:31:42;2.70;;;1.13;;
15202;SDS011;7702;51.046;5.184;2022-10-16T13:34:16;4.47;;;1.10;;
15202;SDS011;7702;51.046;5.184;2022-10-16T13:39:15;3.50;;;1.07;;
15202;SDS011;7702;51.046;5.184;2022-10-16T13:41:46;3.80;;;1.00;;
15202;SDS011;7702;51.046;5.184;2022-10-16T13:44:23;2.17;;;0.80;;
15202;SDS011;7702;51.046;5.184;2022-10-16T13:46:58;2.73;;;1.00;;
15202;SDS011;7702;51.046;5.184;2022-10-16T13:49:25;2.67;;;0.80;;
15202;SDS011;7702;51.046;5.184;2022-10-16T13:52:00;2.23;;;1.00;;
15202;SDS011;7702;51.046;5.184;2022-10-16T13:54:26;1.73;;;1.03;;
15202;SDS011;7702;51.046;5.184;2022-10-16T13:56:53;1.80;;;0.80;;
15202;SDS011;7702;51.046;5.184;2022-10-16T13:59:23;2.30;;;0.93;;
15202;SDS011;7702;51.046;5.184;2022-10-16T14:01:51;2.30;;;1.13;;
15202;SDS011;7702;51.046;5.184;2022-10-16T14:04:19;1.57;;;1.23;;
15202;SDS011;7702;51.046;5.184;2022-10-16T14:06:46;3.63;;;1.10;;
15202;SDS011;7702;51.046;5.184;2022-10-16T14:09:25;1.90;;;0.90;;
15202;SDS011;7702;51.046;5.184;2022-10-16T14:12:01;1.47;;;1.10;;
15202;SDS011;7702;51.046;5.184;2022-10-16T14:14:35;2.93;;;1.40;;
15202;SDS011;7702;51.046;5.184;2022-10-16T14:17:48;1.83;;;0.70;;
15202;SDS011;7702;51.046;5.184;2022-10-16T14:20:02;2.20;;;0.97;;
15202;SDS011;7702;51.046;5.184;2022-10-16T14:22:39;2.37;;;1.13;;
15202;SDS011;7702;51.046;5.184;2022-10-16T14:25:20;3.93;;;1.20;;
15202;SDS011;7702;51.046;5.184;2022-10-16T14:27:59;3.20;;;1.20;;
15202;SDS011;7702;51.046;5.184;2022-10-16T14:30:30;2.90;;;1.30;;
15202;SDS011;7702;51.046;5.184;2022-10-16T14:33:05;2.57;;;0.97;;
15202;SDS011;7702;51.046;5.184;2022-10-16T14:35:44;1.93;;;1.00;;
15202;SDS011;7702;51.046;5.184;2022-10-16T14:38:18;3.77;;;1.03;;
15202;SDS011;7702;51.046;5.184;2022-10-16T14:40:48;4.10;;;1.37;;
15202;SDS011;7702;51.046;5.184;2022-10-16T14:43:17;2.70;;;1.27;;
15202;SDS011;7702;51.046;5.184;2022-10-16T14:45:58;1.47;;;0.90;;
15202;SDS011;7702;51.046;5.184;2022-10-16T14:48:24;1.67;;;1.00;;
15202;SDS011;7702;51.046;5.184;2022-10-16T14:50:50;1.90;;;1.17;;
15202;SDS011;7702;51.046;5.184;2022-10-16T14:53:16;1.90;;;1.10;;
15202;SDS011;7702;51.046;5.184;2022-10-16T14:55:42;2.90;;;1.20;;
15202;SDS011;7702;51.046;5.184;2022-10-16T14:58:21;2.70;;;1.00;;
15202;SDS011;7702;51.046;5.184;2022-10-16T15:00:48;1.53;;;1.00;;
15202;SDS011;7702;51.046;5.184;2022-10-16T15:03:14;8.00;;;1.43;;
15202;SDS011;7702;51.046;5.184;2022-10-16T15:05:40;2.43;;;1.20;;
15202;SDS011;7702;51.046;5.184;2022-10-16T15:08:06;1.90;;;1.07;;
15202;SDS011;7702;51.046;5.184;2022-10-16T15:10:33;2.27;;;0.90;;
15202;SDS011;7702;51.046;5.184;2022-10-16T15:13:03;2.93;;;1.10;;
15202;SDS011;7702;51.046;5.184;2022-10-16T15:17:59;2.10;;;1.17;;
15202;SDS011;7702;51.046;5.184;2022-10-16T15:20:27;2.10;;;1.03;;
15202;SDS011;7702;51.046;5.184;2022-10-16T15:22:58;2.10;;;0.80;;
15202;SDS011;7702;51.046;5.184;2022-10-16T15:27:57;3.87;;;1.23;;
15202;SDS011;7702;51.046;5.184;2022-10-16T15:30:24;1.63;;;1.27;;
15202;SDS011;7702;51.046;5.184;2022-10-16T15:32:51;1.27;;;1.13;;
15202;SDS011;7702;51.046;5.184;2022-10-16T15:35:17;2.80;;;1.20;;
15202;SDS011;7702;51.046;5.184;2022-10-16T15:37:42;2.07;;;1.20;;
15202;SDS011;7702;51.046;5.184;2022-10-16T15:40:09;2.40;;;1.20;;
15202;SDS011;7702;51.046;5.184;2022-10-16T15:42:35;1.87;;;1.07;;
15202;SDS011;7702;51.046;5.184;2022-10-16T15:45:01;3.50;;;1.43;;
15202;SDS011;7702;51.046;5.184;2022-10-16T15:47:26;2.73;;;1.30;;
15202;SDS011;7702;51.046;5.184;2022-10-16T15:49:52;3.70;;;1.20;;
15202;SDS011;7702;51.046;5.184;2022-10-16T15:52:18;2.10;;;1.30;;
15202;SDS011;7702;51.046;5.184;2022-10-16T15:54:43;5.23;;;1.80;;
15202;SDS011;7702;51.046;5.184;2022-10-16T15:57:09;2.70;;;1.90;;
15202;SDS011;7702;51.046;5.184;2022-10-16T15:59:35;3.10;;;1.87;;
15202;SDS011;7702;51.046;5.184;2022-10-16T16:02:00;2.43;;;2.03;;
15202;SDS011;7702;51.046;5.184;2022-10-16T16:04:26;3.20;;;2.13;;
15202;SDS011;7702;51.046;5.184;2022-10-16T16:06:55;6.33;;;2.00;;
15202;SDS011;7702;51.046;5.184;2022-10-16T16:09:21;4.00;;;1.97;;
15202;SDS011;7702;51.046;5.184;2022-10-16T16:11:48;2.43;;;2.17;;
15202;SDS011;7702;51.046;5.184;2022-10-16T16:14:14;3.63;;;2.63;;
15202;SDS011;7702;51.046;5.184;2022-10-16T16:16:40;2.17;;;1.97;;
15202;SDS011;7702;51.046;5.184;2022-10-16T16:19:08;2.50;;;1.60;;
15202;SDS011;7702;51.046;5.184;2022-10-16T16:21:34;2.10;;;1.90;;
15202;SDS011;7702;51.046;5.184;2022-10-16T16:24:00;3.60;;;1.80;;
15202;SDS011;7702;51.046;5.184;2022-10-16T16:26:32;2.10;;;1.83;;
15202;SDS011;7702;51.046;5.184;2022-10-16T16:29:01;4.27;;;2.40;;
15202;SDS011;7702;51.046;5.184;2022-10-16T16:31:29;3.00;;;2.23;;
15202;SDS011;7702;51.046;5.184;2022-10-16T16:33:56;2.17;;;1.97;;
15202;SDS011;7702;51.046;5.184;2022-10-16T16:36:22;2.30;;;2.00;;
15202;SDS011;7702;51.046;5.184;2022-10-16T16:38:49;2.80;;;1.63;;
15202;SDS011;7702;51.046;5.184;2022-10-16T16:41:16;2.93;;;2.13;;
15202;SDS011;7702;51.046;5.184;2022-10-16T16:43:44;3.03;;;2.10;;
15202;SDS011;7702;51.046;5.184;2022-10-16T16:46:10;4.03;;;2.03;;
15202;SDS011;7702;51.046;5.184;2022-10-16T16:48:36;8.10;;;3.40;;
15202;SDS011;7702;51.046;5.184;2022-10-16T16:51:06;6.53;;;3.27;;
15202;SDS011;7702;51.046;5.184;2022-10-16T16:53:34;3.53;;;2.90;;
15202;SDS011;7702;51.046;5.184;2022-10-16T16:56:04;4.47;;;2.90;;
15202;SDS011;7702;51.046;5.184;2022-10-16T16:58:30;3.47;;;2.70;;
15202;SDS011;7702;51.046;5.184;2022-10-16T17:00:56;3.07;;;2.77;;
15202;SDS011;7702;51.046;5.184;2022-10-16T17:03:27;5.30;;;3.00;;
15202;SDS011;7702;51.046;5.184;2022-10-16T17:05:57;5.23;;;3.10;;
15202;SDS011;7702;51.046;5.184;2022-10-16T17:08:31;5.50;;;2.70;;
15202;SDS011;7702;51.046;5.184;2022-10-16T17:10:57;4.17;;;2.70;;
15202;SDS011;7702;51.046;5.184;2022-10-16T17:13:23;4.10;;;3.13;;
15202;SDS011;7702;51.046;5.184;2022-10-16T17:15:50;4.27;;;2.90;;
15202;SDS011;7702;51.046;5.184;2022-10-16T17:18:18;3.03;;;2.83;;
15202;SDS011;7702;51.046;5.184;2022-10-16T17:20:45;3.07;;;2.87;;
15202;SDS011;7702;51.046;5.184;2022-10-16T17:23:12;5.87;;;2.93;;